createdAt,value
2018-12-31T00:00:24.134Z,5.85
2018-12-31T00:01:24.121Z,5.73
2018-12-31T00:02:24.114Z,5.78
2018-12-31T00:03:24.130Z,5.73
2018-12-31T00:04:24.091Z,5.77
2018-12-31T00:05:24.084Z,5.80
2018-12-31T00:06:24.067Z,5.73
2018-12-31T00:07:24.153Z,5.77
2018-12-31T00:08:24.055Z,5.74
2018-12-31T00:09:24.810Z,5.75
2018-12-31T00:10:24.023Z,5.69
2018-12-31T00:11:24.061Z,5.73
2018-12-31T00:12:24.001Z,5.75
2018-12-31T00:13:23.991Z,5.74
2018-12-31T00:14:23.992Z,5.67
2018-12-31T00:15:23.971Z,5.63
2018-12-31T00:16:23.961Z,5.60
2018-12-31T00:17:23.947Z,5.60
2018-12-31T00:18:23.939Z,5.58
2018-12-31T00:19:23.976Z,5.66
2018-12-31T00:20:23.915Z,5.60
2018-12-31T00:21:23.906Z,5.62
2018-12-31T00:22:23.897Z,5.66
2018-12-31T00:23:23.884Z,5.67
2018-12-31T00:24:23.885Z,5.69
2018-12-31T00:25:23.877Z,5.70
2018-12-31T00:26:23.890Z,5.69
2018-12-31T00:27:23.840Z,5.74
2018-12-31T00:28:23.841Z,5.67
2018-12-31T00:29:23.847Z,5.73
2018-12-31T00:30:23.814Z,5.67
2018-12-31T00:31:23.799Z,5.74
2018-12-31T00:32:23.798Z,5.77
2018-12-31T00:33:23.778Z,5.73
2018-12-31T00:34:23.819Z,5.70
2018-12-31T00:35:23.758Z,5.75
2018-12-31T00:36:23.745Z,5.73
2018-12-31T00:37:23.735Z,5.81
2018-12-31T00:38:23.724Z,5.81
2018-12-31T00:39:23.712Z,5.75
2018-12-31T00:40:23.719Z,5.78
2018-12-31T00:41:23.689Z,5.74
2018-12-31T00:42:23.679Z,5.75
2018-12-31T00:43:23.667Z,5.75
2018-12-31T00:44:23.660Z,5.70
2018-12-31T00:45:23.656Z,5.65
2018-12-31T00:46:23.635Z,5.69
2018-12-31T00:47:23.624Z,5.70
2018-12-31T00:48:23.613Z,5.69
2018-12-31T00:49:23.601Z,5.69
2018-12-31T00:50:23.604Z,5.70
2018-12-31T00:51:23.586Z,5.60
2018-12-31T00:52:23.569Z,5.65
2018-12-31T00:53:23.558Z,5.60
2018-12-31T00:54:23.550Z,5.58
2018-12-31T00:55:23.548Z,5.62
2018-12-31T00:56:23.530Z,5.60
2018-12-31T00:57:23.523Z,5.60
2018-12-31T00:58:23.503Z,5.59
2018-12-31T00:59:23.494Z,5.62
2018-12-31T01:00:23.495Z,5.63
2018-12-31T01:01:23.476Z,5.66
2018-12-31T01:02:23.467Z,5.66
2018-12-31T01:03:23.451Z,5.59
2018-12-31T01:04:23.439Z,5.63
2018-12-31T01:05:23.441Z,5.66
2018-12-31T01:06:23.425Z,5.67
2018-12-31T01:07:23.408Z,5.60
2018-12-31T01:08:23.397Z,5.63
2018-12-31T01:09:23.385Z,5.59
2018-12-31T01:10:23.385Z,5.67
2018-12-31T01:11:23.367Z,5.63
2018-12-31T01:12:23.355Z,5.69
2018-12-31T01:13:23.343Z,5.65
2018-12-31T01:14:23.336Z,5.69
2018-12-31T01:15:23.332Z,5.69
2018-12-31T01:16:23.319Z,5.65
2018-12-31T01:17:23.298Z,5.69
2018-12-31T01:18:23.287Z,5.70
2018-12-31T01:19:23.285Z,5.74
2018-12-31T01:20:23.280Z,5.67
2018-12-31T01:21:23.258Z,5.77
2018-12-31T01:22:23.245Z,5.70
2018-12-31T01:23:23.236Z,5.70
2018-12-31T01:24:23.222Z,5.70
2018-12-31T01:25:23.252Z,5.70
2018-12-31T01:26:23.205Z,5.74
2018-12-31T01:27:23.191Z,5.73
2018-12-31T01:28:23.180Z,5.73
2018-12-31T01:29:23.166Z,5.69
2018-12-31T01:30:23.157Z,5.78
2018-12-31T01:31:23.160Z,5.74
2018-12-31T01:32:23.135Z,5.69
2018-12-31T01:33:23.123Z,5.75
2018-12-31T01:34:23.116Z,5.73
2018-12-31T01:35:23.104Z,5.73
2018-12-31T01:36:23.101Z,5.75
2018-12-31T01:37:23.080Z,5.77
2018-12-31T01:38:23.070Z,5.73
2018-12-31T01:39:23.058Z,5.81
2018-12-31T01:40:23.048Z,5.78
2018-12-31T01:41:23.047Z,5.73
2018-12-31T01:42:23.036Z,5.75
2018-12-31T01:43:23.016Z,5.85
2018-12-31T01:44:23.004Z,5.67
2018-12-31T01:45:22.992Z,5.75
2018-12-31T01:46:22.995Z,5.75
2018-12-31T01:47:22.975Z,5.77
2018-12-31T01:48:22.975Z,5.80
2018-12-31T01:49:22.949Z,5.77
2018-12-31T01:50:22.938Z,5.80
2018-12-31T01:51:22.940Z,5.75
2018-12-31T01:52:22.919Z,5.80
2018-12-31T01:53:22.914Z,5.77
2018-12-31T01:54:22.896Z,5.83
2018-12-31T01:55:22.883Z,5.78
2018-12-31T01:56:22.885Z,5.77
2018-12-31T01:57:22.866Z,5.77
2018-12-31T01:58:22.854Z,5.75
2018-12-31T01:59:22.843Z,5.85
2018-12-31T02:00:22.831Z,5.74
2018-12-31T02:01:22.830Z,5.73
2018-12-31T02:02:22.810Z,5.77
2018-12-31T02:03:22.798Z,5.70
2018-12-31T02:04:22.788Z,5.74
2018-12-31T02:05:22.781Z,5.75
2018-12-31T02:06:22.775Z,5.85
2018-12-31T02:07:22.759Z,5.73
2018-12-31T02:08:22.744Z,5.69
2018-12-31T02:09:22.733Z,5.70
2018-12-31T02:10:22.727Z,5.73
2018-12-31T02:11:22.726Z,5.77
2018-12-31T02:12:22.702Z,5.75
2018-12-31T02:13:22.689Z,5.75
2018-12-31T02:14:22.680Z,5.80
2018-12-31T02:15:22.670Z,5.74
2018-12-31T02:16:22.953Z,5.73
2018-12-31T02:17:22.645Z,5.78
2018-12-31T02:18:22.639Z,5.70
2018-12-31T02:19:22.628Z,5.70
2018-12-31T02:20:22.615Z,5.70
2018-12-31T02:21:22.602Z,5.77
2018-12-31T02:22:22.610Z,5.77
2018-12-31T02:23:22.581Z,5.78
2018-12-31T02:24:22.570Z,5.73
2018-12-31T02:25:22.561Z,5.78
2018-12-31T02:26:22.553Z,5.75
2018-12-31T02:27:22.550Z,5.78
2018-12-31T02:28:22.527Z,5.78
2018-12-31T02:29:22.517Z,5.77
2018-12-31T02:30:22.505Z,5.70
2018-12-31T02:31:22.494Z,5.69
2018-12-31T02:32:22.497Z,5.74
2018-12-31T02:33:22.474Z,5.73
2018-12-31T02:34:22.463Z,5.69
2018-12-31T02:35:22.457Z,5.73
2018-12-31T02:36:22.442Z,5.73
2018-12-31T02:37:22.443Z,5.80
2018-12-31T02:38:22.425Z,5.69
2018-12-31T02:39:22.410Z,5.75
2018-12-31T02:40:22.400Z,5.70
2018-12-31T02:41:22.388Z,5.66
2018-12-31T02:42:22.390Z,5.69
2018-12-31T02:43:22.367Z,5.69
2018-12-31T02:44:22.359Z,5.77
2018-12-31T02:45:22.344Z,5.74
2018-12-31T02:46:22.330Z,5.75
2018-12-31T02:47:22.334Z,5.75
2018-12-31T02:48:22.310Z,5.73
2018-12-31T02:49:22.300Z,5.70
2018-12-31T02:50:22.290Z,5.73
2018-12-31T02:51:22.277Z,5.74
2018-12-31T02:52:22.307Z,5.80
2018-12-31T02:53:22.258Z,5.73
2018-12-31T02:54:22.245Z,5.83
2018-12-31T02:55:22.826Z,5.70
2018-12-31T02:56:22.226Z,5.73
2018-12-31T02:57:22.217Z,5.73
2018-12-31T02:58:22.226Z,5.81
2018-12-31T02:59:22.192Z,5.80
2018-12-31T03:00:22.178Z,5.77
2018-12-31T03:01:22.173Z,5.80
2018-12-31T03:02:22.159Z,5.81
2018-12-31T03:03:22.159Z,5.74
2018-12-31T03:04:22.135Z,5.69
2018-12-31T03:05:22.128Z,5.77
2018-12-31T03:06:22.115Z,5.77
2018-12-31T03:07:22.103Z,5.77
2018-12-31T03:08:22.108Z,5.74
2018-12-31T03:09:22.083Z,5.69
2018-12-31T03:10:22.075Z,5.75
2018-12-31T03:11:22.062Z,5.80
2018-12-31T03:12:22.054Z,5.67
2018-12-31T03:13:22.053Z,5.73
2018-12-31T03:14:22.027Z,5.73
2018-12-31T03:15:22.021Z,5.75
2018-12-31T03:16:22.008Z,5.66
2018-12-31T03:17:21.999Z,5.74
2018-12-31T03:18:22.000Z,5.74
2018-12-31T03:19:21.973Z,5.70
2018-12-31T03:20:21.968Z,5.78
2018-12-31T03:21:21.951Z,5.75
2018-12-31T03:22:21.943Z,5.69
2018-12-31T03:23:21.981Z,5.74
2018-12-31T03:24:21.921Z,5.75
2018-12-31T03:25:21.912Z,5.69
2018-12-31T03:26:21.901Z,5.69
2018-12-31T03:27:21.894Z,5.73
2018-12-31T03:28:21.885Z,5.67
2018-12-31T03:29:21.882Z,5.77
2018-12-31T03:30:21.860Z,5.75
2018-12-31T03:31:21.853Z,5.78
2018-12-31T03:32:21.847Z,5.73
2018-12-31T03:33:21.828Z,5.80
2018-12-31T03:34:21.822Z,5.80
2018-12-31T03:35:21.806Z,5.73
2018-12-31T03:36:21.793Z,5.75
2018-12-31T03:37:21.781Z,5.77
2018-12-31T03:38:21.770Z,5.69
2018-12-31T03:39:21.770Z,5.66
2018-12-31T03:40:21.750Z,5.70
2018-12-31T03:41:21.742Z,5.66
2018-12-31T03:42:21.733Z,5.74
2018-12-31T03:43:21.720Z,5.67
2018-12-31T03:44:21.720Z,5.69
2018-12-31T03:45:21.768Z,5.70
2018-12-31T03:46:21.682Z,5.62
2018-12-31T03:47:21.672Z,5.63
2018-12-31T03:48:21.671Z,5.59
2018-12-31T03:49:21.660Z,5.66
2018-12-31T03:50:21.639Z,5.60
2018-12-31T03:51:21.639Z,5.58
2018-12-31T03:52:21.619Z,5.70
2018-12-31T03:53:21.609Z,5.60
2018-12-31T03:54:21.635Z,5.59
2018-12-31T03:55:21.584Z,5.59
2018-12-31T03:56:21.573Z,5.65
2018-12-31T03:57:21.568Z,5.67
2018-12-31T03:58:21.561Z,5.63
2018-12-31T03:59:21.543Z,5.65
2018-12-31T04:00:21.545Z,5.62
2018-12-31T04:01:21.520Z,5.63
2018-12-31T04:02:21.512Z,5.59
2018-12-31T04:03:21.498Z,5.60
2018-12-31T04:04:21.488Z,5.63
2018-12-31T04:05:21.492Z,5.58
2018-12-31T04:06:21.468Z,5.63
2018-12-31T04:07:21.454Z,5.60
2018-12-31T04:08:21.444Z,5.58
2018-12-31T04:09:21.435Z,5.51
2018-12-31T04:10:21.442Z,5.48
2018-12-31T04:11:21.413Z,5.55
2018-12-31T04:12:21.401Z,5.48
2018-12-31T04:13:21.391Z,5.55
2018-12-31T04:14:21.381Z,5.51
2018-12-31T04:15:21.381Z,5.38
2018-12-31T04:16:21.360Z,5.44
2018-12-31T04:17:21.387Z,5.52
2018-12-31T04:18:21.352Z,5.55
2018-12-31T04:19:21.328Z,5.44
2018-12-31T04:20:21.618Z,5.56
2018-12-31T04:21:21.306Z,5.45
2018-12-31T04:22:21.292Z,5.47
2018-12-31T04:23:21.280Z,5.56
2018-12-31T04:24:21.271Z,5.52
2018-12-31T04:25:21.259Z,5.55
2018-12-31T04:26:21.260Z,5.55
2018-12-31T04:27:21.238Z,5.55
2018-12-31T04:28:21.229Z,5.65
2018-12-31T04:29:21.220Z,5.52
2018-12-31T04:30:21.205Z,5.63
2018-12-31T04:31:21.210Z,5.59
2018-12-31T04:32:21.191Z,5.63
2018-12-31T04:33:21.186Z,5.59
2018-12-31T04:34:21.162Z,5.63
2018-12-31T04:35:21.152Z,5.62
2018-12-31T04:36:21.153Z,5.60
2018-12-31T04:37:21.130Z,5.59
2018-12-31T04:38:21.120Z,5.58
2018-12-31T04:39:21.108Z,5.52
2018-12-31T04:40:21.099Z,5.52
2018-12-31T04:41:21.105Z,5.59
2018-12-31T04:42:21.078Z,5.62
2018-12-31T04:43:21.065Z,5.52
2018-12-31T04:44:21.060Z,5.62
2018-12-31T04:45:21.150Z,5.67
2018-12-31T04:46:21.047Z,5.58
2018-12-31T04:47:21.021Z,5.65
2018-12-31T04:48:21.030Z,5.63
2018-12-31T04:49:21.005Z,5.63
2018-12-31T04:50:20.990Z,5.58
2018-12-31T04:51:20.994Z,5.59
2018-12-31T04:52:20.972Z,5.58
2018-12-31T04:53:20.958Z,5.49
2018-12-31T04:54:20.953Z,5.56
2018-12-31T04:55:20.945Z,5.52
2018-12-31T04:56:20.937Z,5.38
2018-12-31T04:57:20.917Z,5.41
2018-12-31T04:58:23.161Z,5.48
2018-12-31T04:59:20.893Z,5.40
2018-12-31T05:00:20.886Z,5.52
2018-12-31T05:01:20.889Z,5.49
2018-12-31T05:02:20.859Z,5.55
2018-12-31T05:03:20.848Z,5.49
2018-12-31T05:04:22.082Z,5.45
2018-12-31T05:05:20.828Z,5.41
2018-12-31T05:06:20.848Z,5.44
2018-12-31T05:07:20.811Z,5.49
2018-12-31T05:08:20.800Z,5.42
2018-12-31T05:09:20.786Z,5.49
2018-12-31T05:10:20.779Z,5.49
2018-12-31T05:11:20.762Z,5.56
2018-12-31T05:12:20.764Z,5.56
2018-12-31T05:13:20.741Z,5.59
2018-12-31T05:14:20.729Z,5.56
2018-12-31T05:15:20.721Z,5.52
2018-12-31T05:16:20.709Z,5.56
2018-12-31T05:17:20.708Z,5.62
2018-12-31T05:18:20.688Z,5.63
2018-12-31T05:19:20.679Z,5.63
2018-12-31T05:20:20.667Z,5.62
2018-12-31T05:21:20.654Z,5.66
2018-12-31T05:22:20.660Z,5.63
2018-12-31T05:23:20.634Z,5.69
2018-12-31T05:24:20.623Z,5.73
2018-12-31T05:25:20.612Z,5.67
2018-12-31T05:26:20.601Z,5.65
2018-12-31T05:27:20.604Z,5.70
2018-12-31T05:28:20.581Z,5.74
2018-12-31T05:29:20.576Z,5.75
2018-12-31T05:30:20.558Z,5.75
2018-12-31T05:31:20.549Z,5.78
2018-12-31T05:32:20.548Z,5.73
2018-12-31T05:33:20.530Z,5.73
2018-12-31T05:34:20.517Z,5.80
2018-12-31T05:35:20.519Z,5.73
2018-12-31T05:36:20.497Z,5.81
2018-12-31T05:37:20.495Z,5.90
2018-12-31T05:38:20.473Z,5.84
2018-12-31T05:39:20.464Z,5.87
2018-12-31T05:40:20.456Z,5.85
2018-12-31T05:41:20.443Z,5.85
2018-12-31T05:42:20.476Z,5.85
2018-12-31T05:43:20.423Z,5.87
2018-12-31T05:44:20.411Z,5.93
2018-12-31T05:45:20.402Z,5.87
2018-12-31T05:46:20.392Z,5.80
2018-12-31T05:47:20.375Z,5.92
2018-12-31T05:48:20.376Z,5.88
2018-12-31T05:49:20.353Z,5.88
2018-12-31T05:50:20.344Z,5.85
2018-12-31T05:51:20.336Z,5.95
2018-12-31T05:52:20.323Z,5.88
2018-12-31T05:53:20.329Z,5.88
2018-12-31T05:54:20.299Z,5.88
2018-12-31T05:55:20.288Z,5.93
2018-12-31T05:56:20.279Z,5.85
2018-12-31T05:57:20.268Z,5.95
2018-12-31T05:58:20.274Z,5.92
2018-12-31T05:59:20.264Z,6.01
2018-12-31T06:00:20.238Z,5.95
2018-12-31T06:01:20.224Z,5.96
2018-12-31T06:02:20.213Z,6.02
2018-12-31T06:03:20.216Z,5.98
2018-12-31T06:04:20.226Z,6.01
2018-12-31T06:05:20.181Z,6.02
2018-12-31T06:06:20.172Z,6.02
2018-12-31T06:07:20.162Z,6.05
2018-12-31T06:08:20.179Z,6.01
2018-12-31T06:09:20.139Z,6.01
2018-12-31T06:10:20.130Z,6.02
2018-12-31T06:11:20.115Z,6.03
2018-12-31T06:12:20.105Z,6.05
2018-12-31T06:13:20.095Z,6.02
2018-12-31T06:14:20.094Z,5.99
2018-12-31T06:15:20.074Z,6.02
2018-12-31T06:16:20.061Z,6.02
2018-12-31T06:17:20.050Z,6.03
2018-12-31T06:18:20.039Z,6.05
2018-12-31T06:19:20.039Z,6.02
2018-12-31T06:20:20.022Z,6.01
2018-12-31T06:21:20.005Z,6.02
2018-12-31T06:22:19.994Z,6.05
2018-12-31T06:23:19.984Z,6.06
2018-12-31T06:24:19.983Z,6.03
2018-12-31T06:25:19.963Z,6.03
2018-12-31T06:26:19.953Z,6.01
2018-12-31T06:27:19.941Z,6.01
2018-12-31T06:28:19.928Z,6.01
2018-12-31T06:29:19.934Z,6.03
2018-12-31T06:30:19.910Z,6.11
2018-12-31T06:31:19.895Z,6.02
2018-12-31T06:32:19.889Z,6.02
2018-12-31T06:33:19.875Z,6.01
2018-12-31T06:34:19.880Z,6.10
2018-12-31T06:35:19.852Z,6.06
2018-12-31T06:36:19.844Z,6.06
2018-12-31T06:37:19.836Z,6.08
2018-12-31T06:38:19.821Z,5.99
2018-12-31T06:39:19.820Z,6.08
2018-12-31T06:40:19.798Z,6.05
2018-12-31T06:41:19.789Z,6.06
2018-12-31T06:42:19.776Z,6.11
2018-12-31T06:43:19.769Z,6.03
2018-12-31T06:44:19.774Z,6.08
2018-12-31T06:45:19.749Z,5.99
2018-12-31T06:46:19.733Z,6.06
2018-12-31T06:47:19.723Z,6.11
2018-12-31T06:48:19.715Z,6.16
2018-12-31T06:49:19.717Z,6.10
2018-12-31T06:50:19.691Z,6.10
2018-12-31T06:51:19.681Z,6.08
2018-12-31T06:52:19.669Z,6.05
2018-12-31T06:53:19.663Z,6.03
2018-12-31T06:54:19.677Z,6.08
2018-12-31T06:55:19.654Z,6.10
2018-12-31T06:56:19.627Z,6.10
2018-12-31T06:57:19.615Z,6.14
2018-12-31T06:58:19.606Z,6.14
2018-12-31T06:59:19.593Z,6.14
2018-12-31T07:00:19.594Z,6.03
2018-12-31T07:01:19.571Z,6.10
2018-12-31T07:02:19.560Z,6.10
2018-12-31T07:03:19.550Z,6.06
2018-12-31T07:04:19.540Z,6.11
2018-12-31T07:05:19.539Z,6.05
2018-12-31T07:06:19.522Z,6.08
2018-12-31T07:07:19.506Z,6.11
2018-12-31T07:08:19.496Z,6.08
2018-12-31T07:09:19.485Z,6.13
2018-12-31T07:10:19.489Z,6.02
2018-12-31T07:11:19.468Z,6.08
2018-12-31T07:12:19.453Z,6.14
2018-12-31T07:13:19.442Z,6.13
2018-12-31T07:14:19.433Z,6.11
2018-12-31T07:15:19.433Z,6.02
2018-12-31T07:16:19.408Z,6.02
2018-12-31T07:17:19.397Z,6.05
2018-12-31T07:18:19.388Z,6.03
2018-12-31T07:19:19.375Z,6.05
2018-12-31T07:20:19.374Z,6.05
2018-12-31T07:21:19.356Z,5.99
2018-12-31T07:22:19.343Z,5.98
2018-12-31T07:23:19.336Z,6.14
2018-12-31T07:24:19.319Z,6.06
2018-12-31T07:25:19.323Z,6.06
2018-12-31T07:26:19.297Z,6.06
2018-12-31T07:27:19.287Z,6.14
2018-12-31T07:28:19.281Z,6.06
2018-12-31T07:29:19.264Z,6.11
2018-12-31T07:30:19.288Z,6.11
2018-12-31T07:31:19.242Z,6.17
2018-12-31T07:32:19.232Z,6.19
2018-12-31T07:33:19.226Z,6.21
2018-12-31T07:34:19.215Z,6.24
2018-12-31T07:35:19.199Z,6.14
2018-12-31T07:36:19.206Z,6.17
2018-12-31T07:37:19.177Z,6.16
2018-12-31T07:38:19.165Z,6.19
2018-12-31T07:39:19.156Z,6.14
2018-12-31T07:40:19.150Z,6.27
2018-12-31T07:41:19.148Z,6.24
2018-12-31T07:42:19.122Z,6.27
2018-12-31T07:43:19.115Z,6.25
2018-12-31T07:44:19.103Z,6.30
2018-12-31T07:45:19.095Z,6.28
2018-12-31T07:46:19.092Z,6.27
2018-12-31T07:47:19.067Z,6.25
2018-12-31T07:48:19.057Z,6.27
2018-12-31T07:49:19.045Z,6.36
2018-12-31T07:50:19.034Z,6.32
2018-12-31T07:51:19.036Z,6.36
2018-12-31T07:52:19.016Z,6.28
2018-12-31T07:53:19.000Z,6.33
2018-12-31T07:54:18.994Z,6.25
2018-12-31T07:55:18.981Z,6.24
2018-12-31T07:56:18.993Z,6.36
2018-12-31T07:57:18.957Z,6.32
2018-12-31T07:58:18.943Z,6.25
2018-12-31T07:59:18.935Z,6.33
2018-12-31T08:00:18.922Z,6.27
2018-12-31T08:01:18.953Z,6.32
2018-12-31T08:02:18.899Z,6.32
2018-12-31T08:03:18.898Z,6.33
2018-12-31T08:04:18.881Z,6.32
2018-12-31T08:05:18.869Z,6.32
2018-12-31T08:06:18.860Z,6.39
2018-12-31T08:07:18.856Z,6.35
2018-12-31T08:08:18.836Z,6.36
2018-12-31T08:09:18.823Z,6.36
2018-12-31T08:10:18.816Z,6.33
2018-12-31T08:11:18.801Z,6.36
2018-12-31T08:12:18.812Z,6.42
2018-12-31T08:13:18.793Z,6.43
2018-12-31T08:14:18.771Z,6.42
2018-12-31T08:15:18.756Z,6.45
2018-12-31T08:16:18.746Z,6.43
2018-12-31T08:17:18.748Z,6.43
2018-12-31T08:18:18.726Z,6.42
2018-12-31T08:19:18.717Z,6.43
2018-12-31T08:20:18.702Z,6.46
2018-12-31T08:21:18.692Z,6.53
2018-12-31T08:22:18.693Z,6.48
2018-12-31T08:23:18.671Z,6.57
2018-12-31T08:24:18.661Z,6.54
2018-12-31T08:25:18.654Z,6.61
2018-12-31T08:26:18.638Z,6.55
2018-12-31T08:27:18.636Z,6.55
2018-12-31T08:28:18.617Z,6.55
2018-12-31T08:29:18.607Z,6.58
2018-12-31T08:30:18.984Z,6.58
2018-12-31T08:31:18.581Z,6.60
2018-12-31T08:32:18.608Z,6.53
2018-12-31T08:33:18.562Z,6.55
2018-12-31T08:34:18.551Z,6.53
2018-12-31T08:35:18.538Z,6.54
2018-12-31T08:36:18.527Z,6.58
2018-12-31T08:37:18.517Z,6.55
2018-12-31T08:38:18.519Z,6.55
2018-12-31T08:39:18.496Z,6.58
2018-12-31T08:40:18.484Z,6.68
2018-12-31T08:41:18.474Z,6.71
2018-12-31T08:42:18.461Z,6.61
2018-12-31T08:43:18.471Z,6.60
2018-12-31T08:44:18.439Z,6.65
2018-12-31T08:45:18.428Z,6.69
2018-12-31T08:46:18.420Z,6.75
2018-12-31T08:47:18.418Z,6.63
2018-12-31T08:48:18.412Z,6.69
2018-12-31T08:49:18.389Z,6.69
2018-12-31T08:50:18.373Z,6.69
2018-12-31T08:51:18.363Z,6.73
2018-12-31T08:52:18.352Z,6.71
2018-12-31T08:53:18.368Z,6.71
2018-12-31T08:54:18.334Z,6.69
2018-12-31T08:55:18.321Z,6.69
2018-12-31T08:56:18.309Z,6.75
2018-12-31T08:57:18.298Z,6.76
2018-12-31T08:58:18.317Z,6.79
2018-12-31T08:59:18.296Z,6.79
2018-12-31T09:00:18.265Z,6.73
2018-12-31T09:01:18.256Z,6.81
2018-12-31T09:02:18.244Z,6.83
2018-12-31T09:03:18.251Z,6.89
2018-12-31T09:04:18.229Z,6.87
2018-12-31T09:05:18.211Z,6.89
2018-12-31T09:06:18.201Z,6.81
2018-12-31T09:07:18.192Z,6.83
2018-12-31T09:08:18.210Z,6.86
2018-12-31T09:09:18.168Z,6.89
2018-12-31T09:10:18.158Z,6.83
2018-12-31T09:11:18.147Z,6.83
2018-12-31T09:12:18.143Z,6.83
2018-12-31T09:13:18.128Z,6.86
2018-12-31T09:14:18.131Z,6.89
2018-12-31T09:15:18.104Z,6.90
2018-12-31T09:16:18.101Z,6.87
2018-12-31T09:17:18.085Z,6.81
2018-12-31T09:18:18.071Z,6.87
2018-12-31T09:19:18.077Z,6.87
2018-12-31T09:20:18.050Z,6.82
2018-12-31T09:21:18.040Z,6.89
2018-12-31T09:22:18.027Z,6.87
2018-12-31T09:23:18.017Z,6.82
2018-12-31T09:24:18.015Z,6.89
2018-12-31T09:25:17.998Z,6.83
2018-12-31T09:26:17.983Z,6.86
2018-12-31T09:27:17.978Z,6.89
2018-12-31T09:28:17.961Z,6.87
2018-12-31T09:29:17.966Z,6.86
2018-12-31T09:30:17.939Z,6.91
2018-12-31T09:31:17.927Z,6.90
2018-12-31T09:32:17.923Z,6.89
2018-12-31T09:33:17.912Z,7.04
2018-12-31T09:34:17.912Z,7.05
2018-12-31T09:35:17.885Z,7.08
2018-12-31T09:36:17.874Z,7.05
2018-12-31T09:37:17.864Z,7.07
2018-12-31T09:38:17.861Z,7.07
2018-12-31T09:39:17.855Z,7.09
2018-12-31T09:40:17.831Z,7.09
2018-12-31T09:41:17.818Z,7.05
2018-12-31T09:42:17.808Z,7.14
2018-12-31T09:43:17.800Z,7.07
2018-12-31T09:44:17.819Z,7.01
2018-12-31T09:45:17.776Z,7.05
2018-12-31T09:46:17.764Z,7.08
2018-12-31T09:47:17.753Z,7.16
2018-12-31T09:48:17.744Z,7.21
2018-12-31T09:49:17.734Z,7.21
2018-12-31T09:50:17.733Z,7.19
2018-12-31T09:51:17.712Z,7.27
2018-12-31T09:52:17.701Z,7.24
2018-12-31T09:53:17.690Z,7.30
2018-12-31T09:54:17.680Z,7.23
2018-12-31T09:55:17.677Z,7.19
2018-12-31T09:56:17.656Z,7.27
2018-12-31T09:57:17.647Z,7.29
2018-12-31T09:58:17.635Z,7.19
2018-12-31T09:59:17.624Z,7.16
2018-12-31T10:00:17.632Z,7.23
2018-12-31T10:01:17.606Z,7.21
2018-12-31T10:02:17.594Z,7.24
2018-12-31T10:03:17.580Z,7.21
2018-12-31T10:04:17.580Z,7.27
2018-12-31T10:05:17.568Z,7.33
2018-12-31T10:06:17.549Z,7.36
2018-12-31T10:07:17.542Z,7.37
2018-12-31T10:08:17.529Z,7.41
2018-12-31T10:09:17.515Z,7.50
2018-12-31T10:10:17.517Z,7.47
2018-12-31T10:11:17.497Z,7.47
2018-12-31T10:12:17.490Z,7.55
2018-12-31T10:13:17.473Z,7.55
2018-12-31T10:14:17.461Z,7.69
2018-12-31T10:15:17.462Z,7.70
2018-12-31T10:16:17.437Z,7.63
2018-12-31T10:17:17.427Z,7.82
2018-12-31T10:18:17.418Z,7.76
2018-12-31T10:19:17.405Z,7.79
2018-12-31T10:20:17.404Z,7.88
2018-12-31T10:21:17.384Z,7.81
2018-12-31T10:22:17.376Z,7.74
2018-12-31T10:23:17.369Z,7.71
2018-12-31T10:24:17.368Z,7.77
2018-12-31T10:25:17.354Z,7.89
2018-12-31T10:26:17.330Z,8.00
2018-12-31T10:27:17.322Z,7.99
2018-12-31T10:28:17.358Z,8.04
2018-12-31T10:29:17.294Z,8.28
2018-12-31T10:30:17.316Z,8.31
2018-12-31T10:31:17.274Z,8.42
2018-12-31T10:32:17.265Z,8.42
2018-12-31T10:33:17.251Z,8.52
2018-12-31T10:34:17.239Z,8.47
2018-12-31T10:35:17.233Z,8.49
2018-12-31T10:36:17.233Z,8.45
2018-12-31T10:37:17.209Z,8.55
2018-12-31T10:38:17.198Z,8.52
2018-12-31T10:39:17.188Z,8.54
2018-12-31T10:40:17.179Z,8.61
2018-12-31T10:41:17.179Z,8.54
2018-12-31T10:42:17.156Z,8.50
2018-12-31T10:43:17.145Z,8.45
2018-12-31T10:44:17.136Z,8.57
2018-12-31T10:45:17.136Z,8.52
2018-12-31T10:46:17.128Z,8.50
2018-12-31T10:47:17.192Z,8.43
2018-12-31T10:48:17.128Z,8.42
2018-12-31T10:49:17.141Z,8.45
2018-12-31T10:50:17.067Z,8.47
2018-12-31T10:51:17.065Z,8.47
2018-12-31T10:52:17.879Z,8.45
2018-12-31T10:53:17.035Z,8.39
2018-12-31T10:54:17.022Z,8.43
2018-12-31T10:55:17.014Z,8.40
2018-12-31T10:56:17.015Z,8.40
2018-12-31T10:57:17.927Z,8.57
2018-12-31T10:58:16.979Z,8.50
2018-12-31T10:59:16.981Z,8.52
2018-12-31T11:00:16.958Z,8.54
2018-12-31T11:01:17.024Z,8.40
2018-12-31T11:02:16.949Z,8.47
2018-12-31T11:03:16.925Z,8.52
2018-12-31T11:04:16.912Z,8.61
2018-12-31T11:05:16.904Z,8.57
2018-12-31T11:06:16.893Z,8.71
2018-12-31T11:07:16.892Z,8.73
2018-12-31T11:08:16.870Z,9.34
2018-12-31T11:09:16.886Z,9.63
2018-12-31T11:10:16.848Z,9.52
2018-12-31T11:11:16.838Z,9.53
2018-12-31T11:12:16.842Z,9.52
2018-12-31T11:13:16.825Z,9.55
2018-12-31T11:14:16.809Z,9.48
2018-12-31T11:15:16.796Z,9.52
2018-12-31T11:16:16.797Z,9.50
2018-12-31T11:17:16.781Z,9.50
2018-12-31T11:18:16.759Z,9.49
2018-12-31T11:19:16.749Z,9.49
2018-12-31T11:20:16.794Z,9.50
2018-12-31T11:21:16.728Z,9.55
2018-12-31T11:23:40.777Z,9.56
2018-12-31T11:24:33.485Z,9.56
2018-12-31T11:25:33.572Z,9.56
2018-12-31T11:26:34.488Z,9.60
2018-12-31T11:27:34.464Z,9.49
2018-12-31T11:28:34.689Z,9.49
2018-12-31T11:29:33.985Z,9.37
2018-12-31T11:30:34.119Z,9.48
2018-12-31T11:31:33.405Z,9.48
2018-12-31T11:32:33.448Z,9.56
2018-12-31T11:33:33.476Z,9.50
2018-12-31T11:34:33.966Z,9.53
2018-12-31T11:35:33.449Z,9.42
2018-12-31T11:36:33.466Z,9.35
2018-12-31T11:37:34.865Z,9.34
2018-12-31T11:38:33.356Z,9.34
2018-12-31T11:39:33.297Z,9.32
2018-12-31T11:40:33.319Z,9.27
2018-12-31T11:41:33.301Z,9.23
2018-12-31T11:42:33.383Z,9.12
2018-12-31T11:43:36.041Z,9.15
2018-12-31T11:44:36.460Z,9.12
2018-12-31T11:45:34.962Z,9.12
2018-12-31T11:46:34.462Z,9.08
2018-12-31T11:47:34.961Z,9.04
2018-12-31T11:48:34.120Z,9.13
2018-12-31T11:49:33.142Z,9.01
2018-12-31T11:50:33.128Z,9.06
2018-12-31T11:51:34.147Z,9.00
2018-12-31T11:52:34.111Z,8.96
2018-12-31T11:53:33.962Z,9.01
2018-12-31T11:54:34.040Z,9.01
2018-12-31T11:55:33.231Z,9.10
2018-12-31T11:56:35.961Z,9.01
2018-12-31T11:57:33.085Z,9.10
2018-12-31T11:58:33.968Z,9.06
2018-12-31T11:59:33.170Z,9.03
2018-12-31T12:00:35.051Z,9.01
2018-12-31T12:01:33.978Z,9.10
2018-12-31T12:02:33.417Z,9.03
2018-12-31T12:03:37.022Z,9.13
2018-12-31T12:04:32.966Z,9.15
2018-12-31T12:05:33.964Z,9.19
2018-12-31T12:06:33.467Z,9.16
2018-12-31T12:07:34.481Z,9.15
2018-12-31T12:08:33.995Z,9.17
2018-12-31T12:09:33.603Z,9.15
2018-12-31T12:10:32.935Z,9.13
2018-12-31T12:11:32.895Z,9.12
2018-12-31T12:12:33.657Z,9.16
2018-12-31T12:13:33.884Z,9.17
2018-12-31T12:14:33.500Z,9.08
2018-12-31T12:15:33.470Z,9.10
2018-12-31T12:16:34.465Z,9.03
2018-12-31T12:17:33.991Z,9.06
2018-12-31T12:18:33.482Z,9.04
2018-12-31T12:19:33.466Z,9.12
2018-12-31T12:20:33.549Z,9.00
2018-12-31T12:21:32.954Z,9.10
2018-12-31T12:22:33.575Z,9.06
2018-12-31T12:23:33.479Z,9.16
2018-12-31T12:24:32.906Z,9.17
2018-12-31T12:25:33.469Z,9.27
2018-12-31T12:26:32.889Z,9.50
2018-12-31T12:27:32.794Z,9.58
2018-12-31T12:28:34.747Z,9.44
2018-12-31T12:29:33.475Z,9.41
2018-12-31T12:30:32.813Z,9.32
2018-12-31T12:31:33.691Z,9.26
2018-12-31T12:32:33.497Z,9.31
2018-12-31T12:33:32.821Z,9.19
2018-12-31T12:34:33.483Z,9.22
2018-12-31T12:35:32.743Z,9.10
2018-12-31T12:36:33.661Z,9.06
2018-12-31T12:37:33.971Z,8.97
2018-12-31T12:38:33.988Z,9.08
2018-12-31T12:39:33.498Z,9.10
2018-12-31T12:40:32.559Z,9.00
2018-12-31T12:41:32.542Z,8.98
2018-12-31T12:42:32.532Z,9.00
2018-12-31T12:43:32.533Z,9.01
2018-12-31T12:44:32.512Z,9.04
2018-12-31T12:45:32.499Z,8.97
2018-12-31T12:46:32.493Z,8.96
2018-12-31T12:47:32.480Z,8.89
2018-12-31T12:48:32.481Z,8.98
2018-12-31T12:49:32.459Z,8.93
2018-12-31T12:50:32.455Z,8.93
2018-12-31T12:51:32.438Z,8.88
2018-12-31T12:52:32.426Z,8.97
2018-12-31T12:53:32.442Z,8.94
2018-12-31T12:54:32.407Z,8.89
2018-12-31T12:55:32.392Z,8.96
2018-12-31T12:56:32.387Z,8.91
2018-12-31T12:57:32.371Z,8.86
2018-12-31T12:58:32.360Z,8.89
2018-12-31T12:59:32.405Z,8.80
2018-12-31T13:00:32.341Z,8.88
2018-12-31T13:01:32.338Z,8.83
2018-12-31T13:02:32.319Z,8.93
2018-12-31T13:03:32.306Z,8.91
2018-12-31T13:04:32.309Z,8.98
2018-12-31T13:05:32.282Z,8.86
2018-12-31T13:06:32.273Z,8.89
2018-12-31T13:07:32.281Z,8.94
2018-12-31T13:08:32.269Z,8.88
2018-12-31T13:09:32.289Z,8.97
2018-12-31T13:10:32.230Z,8.93
2018-12-31T13:11:32.227Z,9.00
2018-12-31T13:12:32.219Z,9.08
2018-12-31T13:13:32.202Z,8.91
2018-12-31T13:14:32.203Z,8.93
2018-12-31T13:15:32.178Z,8.96
2018-12-31T13:16:32.174Z,8.93
2018-12-31T13:17:32.156Z,8.98
2018-12-31T13:18:32.146Z,8.97
2018-12-31T13:19:32.150Z,8.89